Time;durP1;ratioP1;P1;durP2;ratioP2;P2;SDS_P1;SDS_P2;PMS_P1;PMS_P2;Temp;Humidity;BMP_temperature;BMP_pressure;BME280_temperature;BME280_humidity;BME280_pressure;Samples;Min_cycle;Max_cycle;Signal;HPM_P1;HPM_P2
2023/02/18 00:01:34;;;;;;;26.70;2.22;;;6.60;73.50;;;;;;4993678;28;20042;-93
2023/02/18 00:04:01;;;;;;;20.42;2.95;;;6.60;73.40;;;;;;4991270;28;20046;-93
2023/02/18 00:06:31;;;;;;;19.95;2.90;;;6.60;74.40;;;;;;4988732;28;20054;-91
2023/02/18 00:09:00;;;;;;;23.73;2.78;;;6.60;73.70;;;;;;4978185;28;20133;-92
2023/02/18 00:11:29;;;;;;;28.52;3.17;;;6.50;74.00;;;;;;4990694;28;20499;-90
2023/02/18 00:14:00;;;;;;;27.27;2.60;;;6.50;74.20;;;;;;4984600;28;20136;-91
2023/02/18 00:16:28;;;;;;;23.55;3.13;;;6.50;73.10;;;;;;4997156;28;20479;-92
2023/02/18 00:19:01;;;;;;;20.33;3.10;;;6.50;73.40;;;;;;4980069;28;20042;-92
2023/02/18 00:21:29;;;;;;;19.60;2.50;;;6.50;73.60;;;;;;4985841;28;20101;-93
2023/02/18 00:23:57;;;;;;;23.75;2.90;;;6.50;72.60;;;;;;4982473;28;20100;-91
2023/02/18 00:26:24;;;;;;;32.45;3.80;;;6.50;73.00;;;;;;4978799;28;20069;-91
2023/02/18 00:28:51;;;;;;;18.23;2.85;;;6.40;73.50;;;;;;4988306;28;20073;-92
2023/02/18 00:31:27;;;;;;;22.88;2.30;;;6.30;73.40;;;;;;4982493;28;20117;-92
2023/02/18 00:33:56;;;;;;;20.35;2.67;;;6.20;73.20;;;;;;5003657;28;20050;-92
2023/02/18 00:36:25;;;;;;;21.45;3.17;;;6.10;73.20;;;;;;4987083;28;20046;-93
2023/02/18 00:38:54;;;;;;;31.13;2.92;;;6.10;73.50;;;;;;4985963;28;20046;-92
2023/02/18 00:41:24;;;;;;;18.30;2.47;;;6.10;74.50;;;;;;4993391;28;20062;-91
2023/02/18 00:43:51;;;;;;;29.95;3.28;;;6.10;74.60;;;;;;5003121;28;20058;-91
2023/02/18 00:46:18;;;;;;;37.55;3.33;;;6.00;75.00;;;;;;4996452;28;20046;-92
2023/02/18 00:48:45;;;;;;;23.75;3.08;;;5.90;76.00;;;;;;4993711;28;20070;-92
2023/02/18 00:51:13;;;;;;;30.88;2.80;;;5.90;75.80;;;;;;4989747;28;20448;-92
2023/02/18 00:53:40;;;;;;;21.08;3.50;;;5.90;75.40;;;;;;4983846;28;20486;-92
2023/02/18 00:56:07;;;;;;;41.67;4.20;;;5.90;76.00;;;;;;4987112;28;20484;-90
2023/02/18 00:58:35;;;;;;;18.88;2.97;;;5.80;76.50;;;;;;4976946;28;20136;-93
2023/02/18 01:01:04;;;;;;;29.23;2.70;;;5.90;75.70;;;;;;4980097;28;20097;-93
2023/02/18 01:03:33;;;;;;;24.30;2.65;;;5.90;75.80;;;;;;4978122;28;20503;-92
2023/02/18 01:06:00;;;;;;;30.63;3.95;;;5.90;75.90;;;;;;4978413;28;20137;-91
2023/02/18 01:08:27;;;;;;;38.28;4.13;;;5.80;76.00;;;;;;4982730;28;20050;-92
2023/02/18 01:10:56;;;;;;;24.05;3.80;;;5.70;76.40;;;;;;4979337;28;20058;-92
2023/02/18 01:13:24;;;;;;;31.73;2.95;;;5.80;76.30;;;;;;4978633;28;20048;-93
2023/02/18 01:15:51;;;;;;;28.30;3.50;;;5.80;75.90;;;;;;4985742;28;20125;-92
2023/02/18 01:18:19;;;;;;;34.83;3.17;;;5.80;76.80;;;;;;4983523;28;20480;-92
2023/02/18 01:20:47;;;;;;;19.55;3.08;;;5.70;76.70;;;;;;4978586;28;20423;-92
2023/02/18 01:23:14;;;;;;;23.35;2.95;;;5.80;76.10;;;;;;4982827;28;20051;-92
2023/02/18 01:25:42;;;;;;;31.08;3.20;;;5.70;76.50;;;;;;4979228;28;20047;-92
2023/02/18 01:28:10;;;;;;;30.70;2.80;;;5.70;76.50;;;;;;4982515;28;20560;-92
2023/02/18 01:30:38;;;;;;;32.28;3.35;;;5.70;76.90;;;;;;4986455;28;20069;-93
2023/02/18 01:33:05;;;;;;;31.67;4.00;;;5.70;76.40;;;;;;4986370;28;20054;-91
2023/02/18 01:35:33;;;;;;;30.73;3.60;;;5.70;77.40;;;;;;4984745;28;20051;-91
2023/02/18 01:38:01;;;;;;;25.02;2.83;;;5.70;77.30;;;;;;4976494;28;20057;-91
2023/02/18 01:40:29;;;;;;;21.67;3.22;;;5.70;77.30;;;;;;4976122;28;20360;-91
2023/02/18 01:42:56;;;;;;;35.47;3.70;;;5.70;77.40;;;;;;4979954;28;20054;-90
2023/02/18 01:45:36;;;;;;;26.60;3.83;;;5.80;76.70;;;;;;4974607;28;20057;-91
2023/02/18 01:48:06;;;;;;;27.13;2.80;;;5.70;77.20;;;;;;4973858;28;20138;-92
2023/02/18 01:50:37;;;;;;;32.25;3.33;;;5.70;77.40;;;;;;4979687;28;20057;-92
2023/02/18 01:53:04;;;;;;;24.35;3.13;;;5.60;77.40;;;;;;4974067;28;20130;-87
2023/02/18 01:55:33;;;;;;;35.78;3.40;;;5.60;77.50;;;;;;4971904;28;20054;-87
2023/02/18 01:58:00;;;;;;;22.55;3.92;;;5.60;77.90;;;;;;4975646;28;20074;-87
2023/02/18 02:00:27;;;;;;;45.50;3.35;;;5.60;78.30;;;;;;4970199;28;20060;-86
2023/02/18 02:02:54;;;;;;;41.45;3.85;;;5.50;78.20;;;;;;4990611;28;20042;-87
2023/02/18 02:05:21;;;;;;;28.60;3.35;;;5.50;78.90;;;;;;4976397;28;20077;-85
2023/02/18 02:07:51;;;;;;;19.02;2.80;;;5.40;78.50;;;;;;4974098;28;20061;-86
2023/02/18 02:10:18;;;;;;;21.80;3.08;;;5.50;78.60;;;;;;4979841;28;20141;-87
2023/02/18 02:13:28;;;;;;;29.50;3.42;;;5.50;78.20;;;;;;4972731;28;20053;-87
2023/02/18 02:16:01;;;;;;;30.17;3.35;;;5.40;78.60;;;;;;4995566;28;20060;-85
2023/02/18 02:18:51;;;;;;;33.72;3.55;;;5.50;78.00;;;;;;4972600;28;20062;-87
2023/02/18 02:21:46;;;;;;;26.90;3.08;;;5.40;78.80;;;;;;4956451;28;20133;-86
2023/02/18 02:24:38;;;;;;;21.20;3.22;;;5.40;78.60;;;;;;4973518;28;20148;-86
2023/02/18 02:27:33;;;;;;;30.40;3.20;;;5.40;78.50;;;;;;4970897;28;20605;-86
2023/02/18 02:30:20;;;;;;;24.30;5.10;;;5.40;78.50;;;;;;4966808;28;20050;-87
2023/02/18 02:32:50;;;;;;;24.35;2.92;;;5.30;79.30;;;;;;4963209;28;20137;-88
2023/02/18 02:35:34;;;;;;;34.38;3.53;;;5.30;78.80;;;;;;4988513;28;20163;-87
2023/02/18 02:38:32;;;;;;;39.17;3.70;;;5.30;79.30;;;;;;4994942;28;20061;-87
2023/02/18 02:41:08;;;;;;;22.92;2.72;;;5.20;79.40;;;;;;4969082;28;20058;-87
2023/02/18 02:43:41;;;;;;;31.02;3.58;;;5.20;79.80;;;;;;4993716;28;20057;-87
2023/02/18 02:46:16;;;;;;;25.50;4.00;;;5.20;79.90;;;;;;4981715;28;20085;-87
2023/02/18 02:49:07;;;;;;;32.20;3.35;;;5.20;80.50;;;;;;4981156;28;20104;-87
2023/02/18 02:51:45;;;;;;;31.73;3.72;;;5.30;79.80;;;;;;4965843;28;20050;-88
2023/02/18 02:54:24;;;;;;;20.80;3.15;;;5.30;79.90;;;;;;4986510;28;20069;-86
2023/02/18 02:57:24;;;;;;;33.40;3.50;;;5.30;80.30;;;;;;4995832;28;20053;-87
2023/02/18 02:59:57;;;;;;;35.13;3.22;;;5.30;80.90;;;;;;4967141;28;20041;-87
2023/02/18 03:02:36;;;;;;;39.42;3.78;;;5.20;81.70;;;;;;4966969;28;20046;-86
2023/02/18 03:05:34;;;;;;;31.13;2.83;;;5.20;81.20;;;;;;4976771;28;20046;-86
2023/02/18 03:08:51;;;;;;;41.47;3.65;;;5.20;81.60;;;;;;4978422;28;20045;-87
2023/02/18 03:11:18;;;;;;;36.70;3.30;;;5.10;82.00;;;;;;4912356;29;20100;-86
2023/02/18 03:13:51;;;;;;;20.55;3.20;;;5.10;82.20;;;;;;4901576;29;20634;-88
2023/02/18 03:16:42;;;;;;;25.90;2.65;;;5.10;82.10;;;;;;4938093;28;20259;-86
2023/02/18 03:19:37;;;;;;;28.92;3.08;;;5.10;81.50;;;;;;4996693;28;20102;-87
2023/02/18 03:22:10;;;;;;;34.95;4.28;;;5.10;82.60;;;;;;4976518;28;20045;-87
2023/02/18 03:24:40;;;;;;;21.65;4.03;;;5.10;81.80;;;;;;4985752;28;20064;-87
2023/02/18 03:27:20;;;;;;;21.40;3.20;;;5.10;81.90;;;;;;4961324;28;20049;-85
2023/02/18 03:29:56;;;;;;;24.38;3.25;;;5.00;82.20;;;;;;4981471;28;20114;-91
2023/02/18 03:32:26;;;;;;;21.13;3.60;;;5.00;82.50;;;;;;4980405;28;20055;-91
2023/02/18 03:35:00;;;;;;;21.95;2.63;;;4.90;82.30;;;;;;4980100;28;20046;-90
2023/02/18 03:37:30;;;;;;;29.42;3.92;;;4.90;82.80;;;;;;4992267;28;20151;-91
2023/02/18 03:40:00;;;;;;;27.90;3.40;;;4.90;82.60;;;;;;4988253;28;20053;-89
2023/02/18 03:42:28;;;;;;;27.20;4.45;;;4.90;82.90;;;;;;4993864;28;20054;-93
2023/02/18 03:44:55;;;;;;;31.10;3.20;;;4.80;83.00;;;;;;4989017;28;20061;-92
2023/02/18 03:47:23;;;;;;;42.03;3.15;;;4.80;83.10;;;;;;4981314;28;20046;-92
2023/02/18 03:49:50;;;;;;;32.53;3.90;;;4.80;83.00;;;;;;4983342;28;20533;-92
2023/02/18 03:52:17;;;;;;;32.20;3.60;;;4.80;83.60;;;;;;4986978;28;20082;-93
2023/02/18 03:54:44;;;;;;;30.75;4.63;;;4.80;83.20;;;;;;4994557;28;20133;-93
2023/02/18 03:57:11;;;;;;;29.98;3.60;;;4.80;83.30;;;;;;4994410;28;20129;-93
2023/02/18 03:59:37;;;;;;;31.27;4.13;;;4.80;83.50;;;;;;4982865;28;20069;-93
2023/02/18 04:02:04;;;;;;;32.35;3.95;;;4.70;83.60;;;;;;4983681;28;20047;-93
2023/02/18 04:04:31;;;;;;;29.88;3.60;;;4.70;83.40;;;;;;4983094;28;20050;-93
2023/02/18 04:06:58;;;;;;;21.15;3.33;;;4.70;84.00;;;;;;4981701;28;20062;-92
2023/02/18 04:09:25;;;;;;;31.10;4.35;;;4.70;83.80;;;;;;4994357;28;20054;-94
2023/02/18 04:11:52;;;;;;;35.28;4.10;;;4.60;84.30;;;;;;4998917;28;20062;-95
2023/02/18 04:14:19;;;;;;;29.92;3.13;;;4.60;84.50;;;;;;4985123;28;20060;-92
2023/02/18 04:16:48;;;;;;;24.80;3.05;;;4.50;84.60;;;;;;4981625;28;20409;-92
2023/02/18 04:19:15;;;;;;;31.55;3.60;;;4.50;85.20;;;;;;4981172;28;20130;-91
2023/02/18 04:21:42;;;;;;;31.55;3.10;;;4.50;85.20;;;;;;4976986;28;20491;-87
2023/02/18 04:24:09;;;;;;;33.80;3.17;;;4.50;85.70;;;;;;4983054;28;20104;-87
2023/02/18 04:26:36;;;;;;;34.83;5.05;;;4.40;85.60;;;;;;4975539;28;20081;-88
2023/02/18 04:29:03;;;;;;;29.70;3.03;;;4.40;85.70;;;;;;4978958;28;20402;-87
2023/02/18 04:31:30;;;;;;;22.83;2.35;;;4.50;85.80;;;;;;4973493;28;20092;-87
2023/02/18 04:33:56;;;;;;;24.17;2.55;;;4.40;86.00;;;;;;4978899;28;20477;-88
2023/02/18 04:36:23;;;;;;;20.55;3.13;;;4.40;86.30;;;;;;4978691;28;20058;-87
2023/02/18 04:38:50;;;;;;;19.85;3.08;;;4.40;86.40;;;;;;4992866;28;20058;-88
2023/02/18 04:41:17;;;;;;;21.88;2.63;;;4.40;86.30;;;;;;4976337;28;20069;-87
2023/02/18 04:43:45;;;;;;;22.73;3.10;;;4.50;86.00;;;;;;4983592;28;20133;-87
2023/02/18 04:46:11;;;;;;;23.90;2.45;;;4.50;86.30;;;;;;4971491;28;20042;-87
2023/02/18 04:48:38;;;;;;;28.40;3.42;;;4.50;86.70;;;;;;4977164;28;20070;-88
2023/02/18 04:51:06;;;;;;;31.45;3.33;;;4.50;86.70;;;;;;4980280;28;20351;-88
2023/02/18 04:53:33;;;;;;;24.75;2.75;;;4.60;86.80;;;;;;4979543;28;20042;-87
2023/02/18 04:56:00;;;;;;;25.48;3.22;;;4.60;87.10;;;;;;4989902;28;20165;-87
2023/02/18 04:58:27;;;;;;;23.88;2.42;;;4.60;87.20;;;;;;4979346;28;20046;-87
2023/02/18 05:01:00;;;;;;;22.75;3.20;;;4.60;86.90;;;;;;4985322;28;20419;-87
2023/02/18 05:03:28;;;;;;;29.17;3.97;;;4.60;87.10;;;;;;4973924;28;20046;-87
2023/02/18 05:05:55;;;;;;;27.33;2.22;;;4.70;87.20;;;;;;4976863;28;20046;-87
2023/02/18 05:08:22;;;;;;;31.40;3.00;;;4.70;87.10;;;;;;4976429;28;20428;-88
2023/02/18 05:10:49;;;;;;;23.48;3.20;;;4.70;87.60;;;;;;4977049;28;20065;-87
2023/02/18 05:13:16;;;;;;;26.02;2.90;;;4.70;87.50;;;;;;4987547;28;20047;-88
2023/02/18 05:15:43;;;;;;;22.10;2.92;;;4.70;87.80;;;;;;4972360;28;20052;-87
2023/02/18 05:18:09;;;;;;;28.13;3.88;;;4.80;87.70;;;;;;4980129;28;20554;-87
2023/02/18 05:20:36;;;;;;;29.85;2.78;;;4.80;87.70;;;;;;4975681;28;20748;-87
2023/02/18 05:23:03;;;;;;;30.42;3.28;;;4.80;88.10;;;;;;4979788;28;20092;-87
2023/02/18 05:25:30;;;;;;;25.83;3.05;;;4.80;88.30;;;;;;4975542;28;20070;-87
2023/02/18 05:27:57;;;;;;;30.63;2.67;;;4.80;88.40;;;;;;4975178;28;20447;-87
2023/02/18 05:30:24;;;;;;;34.50;3.72;;;4.80;88.40;;;;;;4975044;28;20042;-87
2023/02/18 05:32:51;;;;;;;47.00;4.90;;;4.90;88.60;;;;;;4981673;28;20090;-86
2023/02/18 05:35:18;;;;;;;20.77;3.00;;;4.90;88.80;;;;;;4974026;28;20050;-86
2023/02/18 05:37:44;;;;;;;30.00;3.10;;;4.90;88.60;;;;;;4986026;28;20046;-91
2023/02/18 05:40:14;;;;;;;33.30;3.10;;;4.90;89.00;;;;;;4974834;28;20064;-91
2023/02/18 05:42:41;;;;;;;26.42;3.35;;;4.90;88.80;;;;;;4979778;28;20570;-93
2023/02/18 05:45:10;;;;;;;21.63;2.72;;;4.90;89.10;;;;;;4993030;28;20068;-92
2023/02/18 05:47:36;;;;;;;23.33;2.25;;;4.90;89.20;;;;;;4999235;28;20058;-92
2023/02/18 05:50:04;;;;;;;35.28;3.45;;;4.90;89.20;;;;;;4986126;28;20082;-91
2023/02/18 05:52:31;;;;;;;31.80;3.00;;;5.00;89.10;;;;;;4978574;28;20073;-93
2023/02/18 05:54:58;;;;;;;28.10;2.80;;;5.00;89.40;;;;;;4979091;28;20049;-92
2023/02/18 05:57:25;;;;;;;29.08;2.85;;;5.00;89.80;;;;;;4978778;28;20053;-90
2023/02/18 05:59:52;;;;;;;30.90;2.95;;;5.00;89.40;;;;;;4978865;28;20493;-92
2023/02/18 06:02:19;;;;;;;25.55;3.45;;;5.00;89.20;;;;;;4980782;28;20509;-91
2023/02/18 06:04:46;;;;;;;26.52;3.85;;;5.00;89.30;;;;;;5008066;28;20337;-90
2023/02/18 06:07:12;;;;;;;30.25;2.72;;;5.00;89.40;;;;;;4981558;28;20082;-90
2023/02/18 06:09:39;;;;;;;18.08;3.00;;;5.00;89.40;;;;;;4979356;28;20050;-90
2023/02/18 06:12:06;;;;;;;44.42;3.20;;;4.90;89.50;;;;;;4978077;28;20495;-90
2023/02/18 06:14:33;;;;;;;37.75;2.70;;;4.90;89.40;;;;;;4978825;28;20039;-90
2023/02/18 06:17:00;;;;;;;20.67;3.15;;;4.90;89.30;;;;;;4980592;28;20048;-90
2023/02/18 06:19:27;;;;;;;24.88;3.25;;;4.80;89.70;;;;;;4991844;28;20042;-90
2023/02/18 06:21:55;;;;;;;30.08;3.08;;;4.80;89.90;;;;;;4981591;28;20046;-90
2023/02/18 06:24:21;;;;;;;27.55;3.67;;;4.70;90.40;;;;;;4985906;28;20058;-90
2023/02/18 06:26:49;;;;;;;22.13;2.50;;;4.70;90.40;;;;;;4998267;28;20103;-91
2023/02/18 06:29:16;;;;;;;27.30;2.90;;;4.70;90.40;;;;;;4980139;28;20053;-89
2023/02/18 06:31:43;;;;;;;23.67;2.60;;;4.70;90.20;;;;;;4980066;28;20050;-90
2023/02/18 06:34:10;;;;;;;23.75;2.45;;;4.70;90.20;;;;;;4979441;28;20570;-90
2023/02/18 06:36:37;;;;;;;21.70;2.25;;;4.70;90.20;;;;;;4986194;28;20065;-90
2023/02/18 06:39:04;;;;;;;16.65;2.58;;;4.70;89.90;;;;;;4978064;28;20042;-90
2023/02/18 06:41:32;;;;;;;20.92;2.95;;;4.70;89.70;;;;;;4980218;28;20058;-89
2023/02/18 06:43:59;;;;;;;17.90;2.42;;;4.70;89.80;;;;;;4978537;28;20133;-90
2023/02/18 06:46:26;;;;;;;25.92;2.42;;;4.80;89.40;;;;;;4972086;28;20050;-86
2023/02/18 06:48:53;;;;;;;33.58;2.53;;;4.80;89.00;;;;;;4984173;28;20233;-86
2023/02/18 06:51:19;;;;;;;18.42;2.25;;;4.80;88.60;;;;;;5013842;28;20046;-87
2023/02/18 06:53:46;;;;;;;21.83;3.08;;;4.90;87.90;;;;;;4975415;28;20051;-86
2023/02/18 06:56:13;;;;;;;13.77;1.60;;;5.00;88.20;;;;;;4983286;28;20061;-87
2023/02/18 06:58:40;;;;;;;25.92;1.95;;;5.00;87.60;;;;;;4977171;28;20050;-87
2023/02/18 07:01:07;;;;;;;13.23;1.85;;;5.00;87.50;;;;;;4974480;28;20054;-87
2023/02/18 07:03:34;;;;;;;12.88;1.67;;;5.10;87.00;;;;;;4967692;28;20043;-87
2023/02/18 07:06:01;;;;;;;12.38;1.30;;;5.10;86.80;;;;;;4998972;28;20065;-87
2023/02/18 07:08:29;;;;;;;10.60;1.50;;;5.20;86.10;;;;;;4978770;28;20087;-87
2023/02/18 07:10:56;;;;;;;12.88;2.45;;;5.30;84.70;;;;;;4983451;28;20086;-87
2023/02/18 07:13:23;;;;;;;14.95;1.75;;;5.30;85.60;;;;;;4980763;28;20121;-92
2023/02/18 07:15:50;;;;;;;8.68;1.58;;;5.40;85.10;;;;;;4982086;28;20096;-93
2023/02/18 07:18:17;;;;;;;7.75;1.15;;;5.40;84.90;;;;;;4984831;28;20050;-92
2023/02/18 07:20:44;;;;;;;16.25;1.58;;;5.50;84.10;;;;;;4976223;28;20038;-92
2023/02/18 07:23:11;;;;;;;8.65;1.13;;;5.50;83.90;;;;;;4989830;28;20054;-92
2023/02/18 07:25:38;;;;;;;8.48;1.30;;;5.60;84.50;;;;;;4988600;28;20137;-92
2023/02/18 07:28:04;;;;;;;6.78;1.13;;;5.60;84.40;;;;;;4982658;28;20141;-92
2023/02/18 07:30:31;;;;;;;13.38;1.23;;;5.70;84.10;;;;;;4981860;28;20104;-93
2023/02/18 07:32:58;;;;;;;11.93;1.05;;;5.80;84.60;;;;;;4982934;28;20050;-93
2023/02/18 07:35:28;;;;;;;7.72;0.95;;;5.80;84.00;;;;;;4982240;28;20058;-92
2023/02/18 07:37:56;;;;;;;16.88;1.40;;;5.80;83.60;;;;;;4982053;28;20046;-94
2023/02/18 07:40:23;;;;;;;12.18;1.23;;;5.90;84.50;;;;;;4982553;28;20057;-92
2023/02/18 07:42:50;;;;;;;27.17;6.00;;;6.00;84.10;;;;;;4993802;28;20123;-94
2023/02/18 07:45:17;;;;;;;14.27;1.08;;;6.00;84.70;;;;;;4998615;28;20055;-93
2023/02/18 07:47:44;;;;;;;5.65;1.45;;;6.00;84.80;;;;;;4987593;28;20050;-90
2023/02/18 07:50:11;;;;;;;13.23;2.53;;;6.00;84.50;;;;;;4977494;28;20054;-90
2023/02/18 07:52:38;;;;;;;12.43;1.27;;;6.10;85.00;;;;;;4989772;28;20046;-93
2023/02/18 07:55:05;;;;;;;8.55;1.08;;;6.10;85.30;;;;;;4987193;28;20046;-92
2023/02/18 07:57:55;;;;;;;12.55;1.98;;;6.10;85.90;;;;;;4981896;28;20103;-91
2023/02/18 08:00:19;;;;;;;14.43;2.08;;;6.10;86.10;;;;;;4998610;28;20105;-94
2023/02/18 08:02:46;;;;;;;15.40;2.28;;;6.20;85.70;;;;;;4981512;28;20089;-92
2023/02/18 08:05:13;;;;;;;15.43;2.20;;;6.20;85.70;;;;;;4977593;28;20401;-93
2023/02/18 08:07:40;;;;;;;11.43;1.52;;;6.20;85.80;;;;;;4985291;28;20050;-92
2023/02/18 08:10:07;;;;;;;9.27;1.50;;;6.20;86.00;;;;;;4988385;28;20058;-91
2023/02/18 08:12:34;;;;;;;19.08;1.63;;;6.20;85.60;;;;;;4996557;28;20046;-91
2023/02/18 08:15:01;;;;;;;8.80;1.58;;;6.20;85.60;;;;;;4984912;28;20081;-92
2023/02/18 08:17:28;;;;;;;10.45;1.55;;;6.20;85.50;;;;;;4972300;28;20050;-90
2023/02/18 08:19:55;;;;;;;10.10;2.28;;;6.20;85.70;;;;;;4982059;28;20050;-89
2023/02/18 08:22:22;;;;;;;16.65;2.05;;;6.20;86.00;;;;;;4979926;28;20054;-90
2023/02/18 08:24:49;;;;;;;6.32;1.42;;;6.20;86.30;;;;;;4993798;28;20133;-91
2023/02/18 08:27:16;;;;;;;13.70;1.88;;;6.20;86.10;;;;;;4984796;28;20050;-90
2023/02/18 08:29:43;;;;;;;11.52;1.67;;;6.20;86.50;;;;;;4995898;28;20049;-91
2023/02/18 08:32:10;;;;;;;18.10;2.20;;;6.20;86.30;;;;;;4985326;28;20511;-87
2023/02/18 08:34:37;;;;;;;12.55;1.98;;;6.30;86.70;;;;;;4977073;28;20149;-88
2023/02/18 08:37:04;;;;;;;10.88;1.88;;;6.20;86.70;;;;;;4985528;28;20046;-88
2023/02/18 08:39:35;;;;;;;9.95;1.70;;;6.30;87.10;;;;;;4977084;28;20077;-86
2023/02/18 08:42:05;;;;;;;12.30;2.08;;;6.30;86.60;;;;;;4979473;28;20077;-85
2023/02/18 08:44:32;;;;;;;12.57;2.08;;;6.40;87.00;;;;;;4976261;28;20517;-86
2023/02/18 08:46:59;;;;;;;17.85;1.88;;;6.30;87.60;;;;;;4973541;28;20050;-86
2023/02/18 08:49:26;;;;;;;13.88;1.67;;;6.30;88.10;;;;;;4982809;28;20089;-88
2023/02/18 08:51:53;;;;;;;13.40;2.08;;;6.30;88.90;;;;;;4972420;28;20517;-88
2023/02/18 08:54:21;;;;;;;9.82;1.80;;;6.30;89.80;;;;;;4979049;28;20092;-89
2023/02/18 08:56:48;;;;;;;11.88;1.90;;;6.20;90.60;;;;;;4990808;28;20491;-89
2023/02/18 08:59:15;;;;;;;9.70;1.77;;;6.20;90.50;;;;;;4979407;28;20093;-88
2023/02/18 09:01:42;;;;;;;8.52;2.22;;;6.20;91.00;;;;;;4967717;28;20486;-87
2023/02/18 09:04:09;;;;;;;11.65;2.55;;;6.20;91.00;;;;;;4976961;28;20145;-88
2023/02/18 09:06:37;;;;;;;11.98;1.98;;;6.10;90.70;;;;;;4984390;28;20050;-88
2023/02/18 09:09:04;;;;;;;19.30;2.28;;;6.10;90.80;;;;;;4979859;28;20462;-87
2023/02/18 09:11:32;;;;;;;9.05;2.17;;;6.00;90.30;;;;;;4982059;28;20518;-87
2023/02/18 09:13:58;;;;;;;11.52;1.77;;;6.10;91.90;;;;;;4983690;28;20584;-87
2023/02/18 09:16:27;;;;;;;11.15;2.20;;;6.00;90.70;;;;;;4974485;28;20058;-87
2023/02/18 09:18:54;;;;;;;12.45;2.05;;;6.00;91.90;;;;;;4987745;28;20047;-88
2023/02/18 09:21:22;;;;;;;11.80;2.53;;;6.00;93.30;;;;;;4994056;28;20085;-87
2023/02/18 09:23:50;;;;;;;12.45;2.03;;;6.00;92.40;;;;;;4977685;28;20137;-88
2023/02/18 09:26:21;;;;;;;7.75;1.92;;;6.00;93.60;;;;;;4978636;28;20057;-87
2023/02/18 09:28:50;;;;;;;20.27;2.45;;;6.00;94.60;;;;;;4970864;28;20565;-88
2023/02/18 09:31:19;;;;;;;18.80;2.55;;;6.10;94.00;;;;;;4976443;28;20050;-88
2023/02/18 09:33:52;;;;;;;16.98;3.03;;;6.00;94.50;;;;;;4976550;28;20156;-89
2023/02/18 09:36:19;;;;;;;38.30;4.25;;;6.00;94.90;;;;;;4980378;28;20069;-87
2023/02/18 09:38:47;;;;;;;17.48;2.53;;;6.00;95.00;;;;;;4985747;28;20042;-92
2023/02/18 09:41:23;;;;;;;13.70;2.30;;;5.90;95.90;;;;;;4975987;28;20086;-90
2023/02/18 09:43:55;;;;;;;17.85;2.50;;;5.90;97.20;;;;;;4988633;28;20046;-91
2023/02/18 09:46:34;;;;;;;18.80;3.20;;;5.90;97.60;;;;;;4993968;28;20058;-91
2023/02/18 09:49:06;;;;;;;21.33;2.92;;;5.90;98.10;;;;;;4972114;28;20057;-91
2023/02/18 09:51:33;;;;;;;16.90;3.72;;;5.90;99.00;;;;;;4983032;28;20395;-91
2023/02/18 09:54:00;;;;;;;15.75;2.75;;;5.90;99.10;;;;;;4980304;28;20062;-92
2023/02/18 09:56:31;;;;;;;20.00;3.28;;;5.90;98.30;;;;;;4982321;28;20149;-93
2023/02/18 09:59:07;;;;;;;11.10;3.42;;;5.80;98.40;;;;;;4962137;28;20059;-93
2023/02/18 10:01:37;;;;;;;19.13;4.20;;;5.80;98.60;;;;;;4963293;28;20057;-89
2023/02/18 10:04:15;;;;;;;16.77;4.07;;;5.80;99.20;;;;;;4961688;28;20054;-89
2023/02/18 10:06:48;;;;;;;15.38;3.65;;;5.80;99.70;;;;;;4990347;28;20058;-89
2023/02/18 10:09:24;;;;;;;29.00;5.50;;;5.80;99.20;;;;;;4979458;28;20058;-89
2023/02/18 10:12:18;;;;;;;18.25;4.32;;;5.80;100.00;;;;;;4980716;28;20050;-89
2023/02/18 10:14:53;;;;;;;15.77;4.20;;;5.80;98.60;;;;;;4970228;28;20046;-90
2023/02/18 10:17:29;;;;;;;25.10;4.60;;;5.70;99.00;;;;;;4989099;28;20050;-88
2023/02/18 10:19:58;;;;;;;19.55;5.07;;;5.70;100.00;;;;;;4977870;28;20140;-89
2023/02/18 10:22:27;;;;;;;17.02;5.43;;;5.70;100.00;;;;;;4971421;28;20038;-88
2023/02/18 10:25:04;;;;;;;17.02;4.25;;;5.80;100.00;;;;;;4995391;28;20972;-88
2023/02/18 10:27:34;;;;;;;10.90;3.38;;;5.70;100.00;;;;;;4994931;28;20038;-90
2023/02/18 10:30:42;;;;;;;21.80;3.92;;;5.70;100.00;;;;;;4982938;28;20049;-91
2023/02/18 10:33:40;;;;;;;12.85;4.32;;;5.70;100.00;;;;;;4983604;28;20069;-87
2023/02/18 10:36:26;;;;;;;16.75;4.25;;;5.70;100.00;;;;;;4987455;28;20518;-90
2023/02/18 10:39:02;;;;;;;16.20;4.82;;;5.70;100.00;;;;;;4978864;28;20046;-91
2023/02/18 10:41:56;;;;;;;15.07;3.83;;;5.60;100.00;;;;;;4981617;28;20051;-88
2023/02/18 10:45:05;;;;;;;12.93;3.55;;;5.60;100.00;;;;;;4985035;28;20054;-90
2023/02/18 10:48:10;;;;;;;30.13;3.75;;;5.60;100.00;;;;;;4972764;28;20052;-89
2023/02/18 10:50:43;;;;;;;15.85;4.00;;;5.50;100.00;;;;;;4930010;28;20142;-89
2023/02/18 10:53:17;;;;;;;16.75;3.67;;;5.40;100.00;;;;;;4970113;28;20061;-89
2023/02/18 10:55:48;;;;;;;10.15;3.65;;;5.40;100.00;;;;;;4982188;28;20050;-90
2023/02/18 10:58:30;;;;;;;23.42;3.97;;;5.40;100.00;;;;;;4971138;28;20149;-89
2023/02/18 11:00:59;;;;;;;32.28;4.22;;;5.30;100.00;;;;;;4970921;28;20047;-91
2023/02/18 11:03:46;;;;;;;12.00;4.03;;;5.40;100.00;;;;;;4982127;28;20042;-89
2023/02/18 11:06:29;;;;;;;16.67;4.03;;;5.40;100.00;;;;;;4982160;28;20808;-90
2023/02/18 11:08:57;;;;;;;19.15;4.03;;;5.40;100.00;;;;;;4983556;28;20057;-90
2023/02/18 11:11:31;;;;;;;18.58;3.47;;;5.30;100.00;;;;;;4987285;28;20133;-90
2023/02/18 11:14:01;;;;;;;;;;;5.20;100.00;;;;;;4980167;28;20137;-90
2023/02/18 11:16:45;;;;;;;9.30;2.72;;;5.20;100.00;;;;;;4987510;28;19925;-91
2023/02/18 11:19:37;;;;;;;11.52;3.25;;;5.10;100.00;;;;;;4996461;28;20555;-91
2023/02/18 11:22:17;;;;;;;16.92;3.20;;;5.00;100.00;;;;;;4970600;28;20053;-89
2023/02/18 11:24:49;;;;;;;14.93;2.60;;;4.90;100.00;;;;;;4984625;28;20054;-91
2023/02/18 11:27:29;;;;;;;15.35;2.65;;;4.90;100.00;;;;;;4975124;28;20054;-90
2023/02/18 11:30:16;;;;;;;6.65;2.38;;;4.80;100.00;;;;;;4962827;28;20050;-90
2023/02/18 11:32:44;;;;;;;6.05;2.20;;;4.80;100.00;;;;;;4978026;28;20486;-91
2023/02/18 11:35:20;;;;;;;7.15;2.10;;;4.70;100.00;;;;;;4987707;28;20062;-90
2023/02/18 11:38:00;;;;;;;5.07;1.73;;;4.70;100.00;;;;;;4985216;28;20128;-91
2023/02/18 11:40:33;;;;;;;6.07;2.33;;;4.70;100.00;;;;;;4989256;28;20074;-91
2023/02/18 11:43:12;;;;;;;8.30;2.22;;;4.80;100.00;;;;;;4985066;28;20061;-91
2023/02/18 11:45:40;;;;;;;9.30;1.80;;;4.90;100.00;;;;;;4982308;28;20046;-91
2023/02/18 11:48:22;;;;;;;5.65;2.63;;;4.90;100.00;;;;;;4972602;28;20057;-91
2023/02/18 11:51:00;;;;;;;6.60;1.85;;;4.80;100.00;;;;;;4975073;28;20051;-90
2023/02/18 11:53:35;;;;;;;5.93;1.55;;;4.80;100.00;;;;;;4971606;28;20050;-91
2023/02/18 11:56:06;;;;;;;6.28;1.13;;;4.70;100.00;;;;;;4980551;28;20395;-91
2023/02/18 11:58:39;;;;;;;7.13;0.82;;;4.70;100.00;;;;;;5003603;28;20527;-90
2023/02/18 12:01:23;;;;;;;7.97;0.85;;;4.60;100.00;;;;;;4990526;28;20095;-91
2023/02/18 12:03:59;;;;;;;6.63;1.10;;;4.60;100.00;;;;;;4987836;28;20042;-92
2023/02/18 12:06:57;;;;;;;3.53;1.00;;;4.60;100.00;;;;;;4988294;28;20046;-91
2023/02/18 12:09:35;;;;;;;3.80;0.95;;;4.50;100.00;;;;;;4990894;28;20057;-90
2023/02/18 12:12:29;;;;;;;5.05;1.00;;;4.50;100.00;;;;;;4998501;28;20050;-91
2023/02/18 12:14:59;;;;;;;6.28;0.75;;;4.40;100.00;;;;;;4957657;28;20065;-91
2023/02/18 12:17:53;;;;;;;2.85;1.02;;;4.40;100.00;;;;;;4987484;28;20062;-90
2023/02/18 12:21:03;;;;;;;7.10;1.02;;;4.40;100.00;;;;;;4979265;28;20058;-89
2023/02/18 12:27:26;;;;;;;6.63;1.05;;;4.50;100.00;;;;;;5026502;23;20077;-78
2023/02/18 12:30:08;;;;;;;6.18;1.02;;;4.50;100.00;;;;;;5006559;28;20056;-77
2023/02/18 12:32:52;;;;;;;4.05;0.90;;;4.40;100.00;;;;;;5012741;28;20045;-81
2023/02/18 12:35:50;;;;;;;5.47;1.13;;;4.50;100.00;;;;;;4990168;28;20050;-77
2023/02/18 12:38:55;;;;;;;3.83;1.10;;;4.50;100.00;;;;;;5017657;28;20072;-79
2023/02/18 12:41:21;;;;;;;3.58;0.90;;;4.60;100.00;;;;;;5003343;28;20144;-80
2023/02/18 12:44:15;;;;;;;6.72;1.40;;;4.70;100.00;;;;;;4995329;28;20573;-79
2023/02/18 12:47:05;;;;;;;4.35;2.00;;;4.70;100.00;;;;;;4989528;28;20060;-78
2023/02/18 12:49:58;;;;;;;6.78;1.60;;;4.80;100.00;;;;;;4995588;28;20056;-78
2023/02/18 12:52:43;;;;;;;8.30;3.03;;;4.80;100.00;;;;;;4999399;28;20072;-78
2023/02/18 12:55:37;;;;;;;7.03;1.83;;;4.80;100.00;;;;;;4994641;28;20056;-80
2023/02/18 12:58:23;;;;;;;5.78;1.70;;;4.70;100.00;;;;;;5014712;28;20501;-80
2023/02/18 13:01:09;;;;;;;10.93;2.83;;;4.70;100.00;;;;;;4999494;28;20138;-80
2023/02/18 13:04:08;;;;;;;8.98;3.85;;;4.60;100.00;;;;;;5016390;28;20115;-79
2023/02/18 13:06:54;;;;;;;11.90;3.13;;;4.70;100.00;;;;;;4994258;28;20046;-77
2023/02/18 13:09:58;;;;;;;8.23;2.40;;;4.70;100.00;;;;;;5013265;28;20057;-76
2023/02/18 13:12:30;;;;;;;9.60;3.25;;;4.60;100.00;;;;;;5005235;28;20050;-77
2023/02/18 13:15:36;;;;;;;3.35;1.30;;;4.60;100.00;;;;;;4996156;28;20057;-77
2023/02/18 13:18:08;;;;;;;2.47;0.77;;;4.40;100.00;;;;;;4987744;28;20053;-77